Time;durP1;ratioP1;P1;durP2;ratioP2;P2;SDS_P1;SDS_P2;PMS_P1;PMS_P2;Temp;Humidity;BMP_temperature;BMP_pressure;BME280_temperature;BME280_humidity;BME280_pressure;Samples;Min_cycle;Max_cycle;Signal;HPM_P1;HPM_P2
2021/01/29 05:35:28;;;;;;;1999.90;999.90;;;6.60;99.90;;;;;;6320607;22;20072;-95
2021/01/29 05:38:15;;;;;;;1999.90;999.90;;;6.80;99.90;;;;;;6345459;22;20014;-96
2021/01/29 05:41:17;;;;;;;1999.90;999.90;;;6.90;99.90;;;;;;6348307;22;20069;-96
2021/01/29 05:44:33;;;;;;;1999.90;999.90;;;7.10;99.90;;;;;;6350308;22;20023;-96
2021/01/29 05:47:38;;;;;;;1999.90;999.90;;;7.20;99.90;;;;;;6302349;22;20023;-96
2021/01/29 05:50:32;;;;;;;1999.90;999.90;;;7.30;99.90;;;;;;6331397;22;20046;-96
2021/01/29 05:53:39;;;;;;;1999.90;999.90;;;7.50;99.90;;;;;;6347642;22;20019;-95
2021/01/29 05:56:13;;;;;;;1999.90;999.90;;;7.50;99.90;;;;;;6306870;22;20042;-95
2021/01/29 05:59:11;;;;;;;1999.90;999.90;;;7.60;99.90;;;;;;6344813;22;20015;-96
2021/01/29 06:02:12;;;;;;;1999.90;999.90;;;7.60;99.90;;;;;;6321918;22;20025;-96
2021/01/29 06:05:33;;;;;;;1999.90;999.90;;;7.70;99.90;;;;;;6344925;22;20022;-96
2021/01/29 06:08:34;;;;;;;1999.90;999.90;;;7.70;99.90;;;;;;6307839;22;20011;-96
2021/01/29 06:11:27;;;;;;;1999.90;999.90;;;7.80;99.90;;;;;;6345503;22;20018;-96
2021/01/29 06:14:42;;;;;;;1999.90;999.90;;;7.90;99.90;;;;;;6343374;22;20035;-96
2021/01/29 06:17:57;;;;;;;1999.90;999.90;;;8.00;99.90;;;;;;6342898;22;20037;-95
2021/01/29 06:21:08;;;;;;;1999.90;999.90;;;8.00;99.90;;;;;;6347392;22;20046;-96
2021/01/29 06:24:04;;;;;;;1999.90;999.90;;;8.10;99.90;;;;;;6348779;22;20042;-96
2021/01/29 06:29:53;;;;;;;1999.90;999.90;;;8.10;99.90;;;;;;6323835;22;20050;-96
2021/01/29 06:36:01;;;;;;;1999.90;999.90;;;8.20;99.90;;;;;;6326819;22;20019;-96
2021/01/29 06:38:58;;;;;;;;;;;8.20;99.90;;;;;;6324545;22;20035;-96
2021/01/29 06:42:18;;;;;;;1999.90;999.90;;;8.20;99.90;;;;;;6319550;22;19964;-96
2021/01/29 06:45:17;;;;;;;1999.90;999.90;;;8.30;99.90;;;;;;6311810;22;20019;-95
2021/01/29 06:48:08;;;;;;;1999.90;999.90;;;8.30;99.90;;;;;;6320076;22;20019;-96
2021/01/29 06:51:14;;;;;;;1999.90;999.90;;;8.30;99.90;;;;;;6319863;22;20076;-96
2021/01/29 06:54:17;;;;;;;1999.90;999.90;;;8.30;99.90;;;;;;6318340;22;20020;-96
2021/01/29 06:57:09;;;;;;;1999.90;999.90;;;8.30;99.90;;;;;;6248821;22;20026;-96
2021/01/29 07:00:35;;;;;;;1999.90;999.90;;;8.30;99.90;;;;;;6327260;22;20022;-96
2021/01/29 07:03:41;;;;;;;1999.90;999.90;;;8.40;99.90;;;;;;6327645;22;20019;-96
2021/01/29 07:06:31;;;;;;;1999.90;999.90;;;8.30;99.90;;;;;;6314352;22;20037;-96
2021/01/29 07:10:20;;;;;;;1999.90;999.90;;;8.40;99.90;;;;;;6331229;22;20015;-96
2021/01/29 07:21:48;;;;;;;1999.90;999.90;;;8.40;99.90;;;;;;6207565;23;20016;-96
2021/01/29 07:24:40;;;;;;;1999.90;999.90;;;8.40;99.90;;;;;;6248849;23;20071;-96
2021/01/29 07:27:55;;;;;;;1999.90;999.90;;;8.40;99.90;;;;;;6305861;22;20027;-96
2021/01/29 07:33:35;;;;;;;1999.90;999.90;;;8.40;99.90;;;;;;6305629;22;20030;-96
2021/01/29 07:43:34;;;;;;;1999.90;999.90;;;8.40;99.90;;;;;;6265751;23;20058;-96
2021/01/29 07:53:15;;;;;;;1999.90;999.90;;;8.50;99.90;;;;;;6284063;22;20046;-96
2021/01/29 08:39:23;;;;;;;1999.90;999.90;;;8.60;99.90;;;;;;6256468;22;20030;-96
2021/01/29 08:46:54;;;;;;;1999.90;999.90;;;8.60;99.90;;;;;;6091498;23;20050;-96
2021/01/29 08:50:51;;;;;;;1999.90;999.90;;;8.60;99.90;;;;;;6223605;22;20015;-96
2021/01/29 08:57:51;;;;;;;1999.90;999.90;;;8.60;99.90;;;;;;6207415;23;19965;-96
2021/01/29 09:08:54;;;;;;;1999.90;999.90;;;8.60;99.90;;;;;;6175285;23;20047;-96
2021/01/29 09:22:31;;;;;;;1999.90;999.90;;;8.50;99.90;;;;;;6207813;23;20031;-96
2021/01/29 09:25:26;;;;;;;1999.90;999.90;;;8.50;99.90;;;;;;6232008;23;20049;-96
2021/01/29 09:28:25;;;;;;;1999.90;999.90;;;8.50;99.90;;;;;;6202361;23;20020;-96
2021/01/29 09:31:02;;;;;;;1999.90;999.90;;;8.50;99.90;;;;;;6214181;23;20027;-95
2021/01/29 09:37:23;;;;;;;1999.90;999.90;;;8.50;99.90;;;;;;6299145;22;20085;-96
2021/01/29 09:40:30;;;;;;;1999.90;999.90;;;8.50;99.90;;;;;;6325968;22;20049;-96
2021/01/29 09:46:28;;;;;;;1999.90;999.90;;;8.50;99.90;;;;;;6324756;22;20019;-96
2021/01/29 09:49:46;;;;;;;1999.90;999.90;;;8.50;99.90;;;;;;6326849;22;20021;-96
2021/01/29 09:52:52;;;;;;;;;;;;;;;;;;;;;
2021/01/29 09:55:45;;;;;;;1999.90;999.90;;;8.50;99.90;;;;;;6318469;22;20023;-96
2021/01/29 09:58:23;;;;;;;1999.90;999.90;;;8.50;99.90;;;;;;6316649;22;20011;-96
2021/01/29 10:01:04;;;;;;;1999.90;999.90;;;8.60;99.90;;;;;;6318990;22;20039;-96
2021/01/29 10:03:36;;;;;;;1999.90;999.90;;;8.60;99.90;;;;;;6314968;22;20016;-96
2021/01/29 10:06:19;;;;;;;1999.90;999.90;;;8.60;99.90;;;;;;6318465;22;20026;-96
2021/01/29 10:09:16;;;;;;;1999.90;999.90;;;8.60;99.90;;;;;;6322069;22;20027;-96
2021/01/29 10:12:26;;;;;;;1999.90;999.90;;;8.60;99.90;;;;;;6324230;22;20084;-96
2021/01/29 10:15:25;;;;;;;1999.90;999.90;;;8.60;99.90;;;;;;6331862;22;20035;-96
2021/01/29 10:21:19;;;;;;;1999.90;999.90;;;8.70;99.90;;;;;;6231235;23;20494;-96
2021/01/29 10:23:51;;;;;;;1999.90;999.90;;;8.80;99.90;;;;;;6217326;23;20088;-96
2021/01/29 10:26:26;;;;;;;1999.90;999.90;;;8.70;99.90;;;;;;6227483;23;20068;-95
2021/01/29 10:29:21;;;;;;;1999.90;999.90;;;8.70;99.90;;;;;;6217694;23;20016;-96
2021/01/29 10:33:04;;;;;;;1999.90;999.90;;;8.70;99.90;;;;;;6219520;23;20017;-96
2021/01/29 10:39:25;;;;;;;1999.90;999.90;;;8.70;99.90;;;;;;6124034;23;20032;-96
2021/01/29 12:23:09;;;;;;;1999.90;999.90;;;9.40;99.90;;;;;;6190904;22;20465;-95
2021/01/29 12:26:15;;;;;;;1999.90;999.90;;;9.40;99.90;;;;;;6100848;23;20023;-96
2021/01/29 12:32:51;;;;;;;1999.90;999.90;;;9.40;99.90;;;;;;6280836;22;20047;-95
2021/01/29 12:36:16;;;;;;;1999.90;999.90;;;9.30;99.90;;;;;;6281888;22;20091;-96
2021/01/29 12:39:27;;;;;;;1999.90;999.90;;;9.30;99.90;;;;;;6188709;23;20018;-96
2021/01/29 12:50:55;;;;;;;1999.90;999.90;;;9.30;99.90;;;;;;6152644;23;20096;-95
2021/01/29 12:58:17;;;;;;;1999.90;999.90;;;9.30;99.90;;;;;;6072709;23;20103;-96
2021/01/29 13:01:06;;;;;;;1999.90;999.90;;;9.40;99.90;;;;;;6072458;23;20034;-95
2021/01/29 13:03:50;;;;;;;1999.90;999.90;;;9.40;99.90;;;;;;6130540;23;20036;-96
2021/01/29 13:06:39;;;;;;;1999.90;999.90;;;9.40;99.90;;;;;;6131674;23;20021;-95
2021/01/29 13:09:47;;;;;;;1999.90;999.90;;;9.40;99.90;;;;;;6130823;23;20326;-96
2021/01/29 13:12:50;;;;;;;1999.90;999.90;;;9.30;99.90;;;;;;6129364;23;20022;-96
2021/01/29 13:15:23;;;;;;;;;;;9.40;99.90;;;;;;6149677;22;20182;-96
2021/01/29 13:18:02;;;;;;;1999.90;999.90;;;9.40;99.90;;;;;;6306038;22;19899;-94
2021/01/29 13:20:47;;;;;;;1999.90;999.90;;;9.40;99.90;;;;;;6302759;22;20024;-96
2021/01/29 13:24:07;;;;;;;1999.90;999.90;;;9.40;99.90;;;;;;6281082;22;20028;-95
2021/01/29 13:26:43;;;;;;;1999.90;999.90;;;9.40;99.90;;;;;;6278465;22;20024;-95
2021/01/29 13:32:47;;;;;;;1999.90;999.90;;;9.40;99.90;;;;;;6279192;22;20086;-95
2021/01/29 13:35:37;;;;;;;1999.90;999.90;;;9.40;99.90;;;;;;6280460;22;20019;-94
2021/01/29 13:38:38;;;;;;;1999.90;999.90;;;9.40;99.90;;;;;;6278651;22;20026;-96
2021/01/29 13:41:09;;;;;;;1999.90;999.90;;;9.40;99.90;;;;;;6280924;22;20022;-95
2021/01/29 13:43:37;;;;;;;1999.90;999.90;;;9.30;99.90;;;;;;6281419;22;20043;-95
2021/01/29 13:46:47;;;;;;;1999.90;999.90;;;9.40;99.90;;;;;;6281827;22;20499;-95
2021/01/29 13:49:28;;;;;;;1999.90;999.90;;;9.40;99.90;;;;;;6281128;22;20011;-95
2021/01/29 13:55:46;;;;;;;1999.90;999.90;;;9.40;99.90;;;;;;6206678;22;20111;-95
2021/01/29 13:58:46;;;;;;;1999.90;999.90;;;9.40;99.90;;;;;;6281622;22;20016;-95
2021/01/29 14:08:50;;;;;;;1999.90;999.90;;;9.30;99.90;;;;;;6280332;22;20028;-95
2021/01/29 14:12:06;;;;;;;1999.90;999.90;;;9.40;99.90;;;;;;6163082;23;20464;-96
2021/01/29 14:14:43;;;;;;;1999.90;999.90;;;9.40;99.90;;;;;;6182420;23;20009;-95
2021/01/29 14:17:24;;;;;;;1999.90;999.90;;;9.30;99.90;;;;;;6183280;23;20054;-96
2021/01/29 14:20:12;;;;;;;1999.90;999.90;;;9.30;99.90;;;;;;6165182;23;20022;-95
2021/01/29 14:22:51;;;;;;;1999.90;999.90;;;9.30;99.90;;;;;;6157869;23;20092;-96
2021/01/29 14:25:42;;;;;;;1999.90;999.90;;;9.30;99.90;;;;;;6157569;23;20021;-96
2021/01/29 14:31:53;;;;;;;1999.90;999.90;;;9.30;99.90;;;;;;6139185;23;20026;-96
2021/01/29 14:34:39;;;;;;;1999.90;999.90;;;9.30;99.90;;;;;;6156929;23;20048;-96
2021/01/29 14:46:34;;;;;;;1999.90;999.90;;;9.20;99.90;;;;;;6298773;22;20031;-96
2021/01/29 16:17:16;;;;;;;1999.90;999.90;;;8.90;99.90;;;;;;6247698;22;20049;-96
2021/01/29 16:20:04;;;;;;;1999.90;999.90;;;9.00;99.90;;;;;;6335938;22;20003;-96
2021/01/29 16:28:18;;;;;;;1999.90;999.90;;;8.80;99.90;;;;;;6334266;22;20067;-96
2021/01/29 17:26:18;;;;;;;1999.90;999.90;;;8.10;99.90;;;;;;6189116;22;20132;-96
2021/01/29 17:29:00;;;;;;;1999.90;999.90;;;8.10;99.90;;;;;;6275184;22;20067;-96
2021/01/29 17:31:35;;;;;;;1999.90;999.90;;;8.00;99.90;;;;;;6281207;22;20027;-96
2021/01/29 17:34:47;;;;;;;1999.90;999.90;;;8.00;99.90;;;;;;6281387;22;20027;-96
2021/01/29 17:37:30;;;;;;;1999.90;999.90;;;7.90;99.90;;;;;;6282174;22;20071;-96
2021/01/29 18:00:21;;;;;;;1999.90;999.90;;;7.60;99.90;;;;;;6276229;22;20379;-96
2021/01/29 18:36:43;;;;;;;1999.90;999.90;;;7.50;99.90;;;;;;6257910;22;20079;-96
2021/01/29 18:39:59;;;;;;;1999.90;999.90;;;7.40;99.90;;;;;;6253657;23;20074;-96
2021/01/29 18:42:32;;;;;;;1999.90;999.90;;;7.40;99.90;;;;;;6254471;23;20020;-95
2021/01/29 18:48:20;;;;;;;1999.90;999.90;;;7.40;99.90;;;;;;6248657;23;20027;-96
2021/01/29 18:51:05;;;;;;;1999.90;999.90;;;7.40;99.90;;;;;;6247023;23;20028;-96
2021/01/29 18:57:16;;;;;;;1999.90;999.90;;;7.50;99.90;;;;;;6243056;23;20039;-96
2021/01/29 19:00:07;;;;;;;1999.90;999.90;;;7.50;99.90;;;;;;6249213;23;20016;-96
2021/01/29 19:03:04;;;;;;;1999.90;999.90;;;7.50;99.90;;;;;;6259925;23;20016;-96
2021/01/29 19:22:46;;;;;;;1999.90;999.90;;;7.10;99.90;;;;;;6078326;23;20026;-96
2021/01/29 19:25:54;;;;;;;1999.90;999.90;;;7.00;99.90;;;;;;6106810;23;20025;-96
2021/01/29 19:29:02;;;;;;;1999.90;999.90;;;6.80;99.90;;;;;;6147917;23;20018;-96
2021/01/29 19:31:46;;;;;;;;;;;;;;;;;;;;;
2021/01/29 19:49:23;;;;;;;1999.90;999.90;;;6.00;99.90;;;;;;6243616;22;20470;-95
2021/01/29 20:08:13;;;;;;;1999.90;999.90;;;5.50;99.90;;;;;;6282939;22;20031;-96
2021/01/29 20:11:04;;;;;;;1999.90;999.90;;;5.40;99.90;;;;;;6281058;22;20070;-96
2021/01/29 20:21:55;;;;;;;1999.90;999.90;;;5.00;99.90;;;;;;6268248;22;20418;-96
2021/01/29 20:24:55;;;;;;;1999.90;999.90;;;4.90;99.90;;;;;;6217832;23;20115;-96
2021/01/29 20:27:59;;;;;;;;;;;;;;;;;;;;;
2021/01/29 20:30:52;;;;;;;1999.90;999.90;;;4.90;99.90;;;;;;6269773;22;20083;-96
2021/01/29 20:33:29;;;;;;;1999.90;999.90;;;4.90;99.90;;;;;;6279440;22;20019;-95
2021/01/29 20:36:26;;;;;;;1999.90;999.90;;;4.80;99.90;;;;;;6279449;22;20019;-96
2021/01/29 20:38:56;;;;;;;1999.90;999.90;;;4.80;99.90;;;;;;6279429;22;20069;-96
2021/01/29 20:41:27;;;;;;;1999.90;999.90;;;4.80;99.90;;;;;;6282048;22;20300;-96
2021/01/29 20:43:55;;;;;;;1999.90;999.90;;;4.80;99.90;;;;;;6281202;22;20070;-96
2021/01/29 20:46:22;;;;;;;1999.90;999.90;;;4.80;99.90;;;;;;6281165;22;20022;-95
2021/01/29 20:48:50;;;;;;;1999.90;999.90;;;4.80;99.90;;;;;;6281260;22;20453;-96
2021/01/29 20:51:26;;;;;;;1999.90;999.90;;;4.80;99.90;;;;;;6281960;22;20074;-95
2021/01/29 20:53:53;;;;;;;1999.90;999.90;;;4.70;99.90;;;;;;6281557;22;20420;-96
2021/01/29 20:56:23;;;;;;;1999.90;999.90;;;4.70;99.90;;;;;;6281922;22;20324;-96
2021/01/29 20:59:05;;;;;;;1999.90;999.90;;;4.70;99.90;;;;;;6282762;22;20036;-96
2021/01/29 21:01:37;;;;;;;1999.90;999.90;;;4.70;99.90;;;;;;6287304;22;20434;-96
2021/01/29 21:04:38;;;;;;;1999.90;999.90;;;4.60;99.90;;;;;;6293518;22;20099;-95
2021/01/29 21:10:42;;;;;;;1999.90;999.90;;;4.50;99.90;;;;;;6300528;22;20038;-95
2021/01/29 21:17:21;;;;;;;1999.90;999.90;;;4.40;99.90;;;;;;6286890;22;20418;-94
2021/01/29 21:19:56;;;;;;;1999.90;999.90;;;4.30;99.90;;;;;;6281957;22;20016;-95
2021/01/29 21:22:38;;;;;;;1999.90;999.90;;;4.30;99.90;;;;;;6281960;22;20350;-95
2021/01/29 21:25:32;;;;;;;1999.90;999.90;;;4.20;99.90;;;;;;6282529;22;20034;-95
2021/01/29 21:28:41;;;;;;;1999.90;999.90;;;4.20;99.90;;;;;;6282635;22;20019;-93
2021/01/29 21:31:52;;;;;;;1999.90;999.90;;;4.10;99.90;;;;;;6276954;22;20028;-94
2021/01/29 21:34:53;;;;;;;1999.90;999.90;;;4.10;99.90;;;;;;6270783;22;20027;-94
2021/01/29 21:37:29;;;;;;;1999.90;999.90;;;4.20;99.90;;;;;;6280613;22;20027;-94
2021/01/29 21:39:57;;;;;;;1999.90;999.90;;;4.10;99.90;;;;;;6282048;22;20015;-95
2021/01/29 23:05:31;;;;;;;1999.90;999.90;;;3.10;99.90;;;;;;6296195;22;20050;-96
2021/01/29 23:08:11;;;;;;;1999.90;999.90;;;3.00;99.90;;;;;;6283519;22;20039;-96
2021/01/29 23:10:46;;;;;;;1999.90;999.90;;;3.00;99.90;;;;;;6284204;22;20377;-96
2021/01/29 23:13:27;;;;;;;1999.90;999.90;;;3.00;99.90;;;;;;6293272;22;20020;-96
2021/01/29 23:16:21;;;;;;;;;;;;;;;;;;;;;
2021/01/29 23:19:18;;;;;;;1999.90;999.90;;;2.90;99.90;;;;;;6283647;22;20016;-96
2021/01/29 23:22:10;;;;;;;1999.90;999.90;;;2.90;99.90;;;;;;6288521;22;20394;-96
2021/01/29 23:33:17;;;;;;;1999.90;999.90;;;2.90;99.90;;;;;;6000535;24;20020;-96
2021/01/29 23:37:03;;;;;;;;;;;;;;;;;;;;;
2021/01/29 23:39:42;;;;;;;1999.90;999.90;;;2.80;99.90;;;;;;6175527;23;20487;-95
2021/01/29 23:42:09;;;;;;;1999.90;999.90;;;2.80;99.90;;;;;;6215524;23;20020;-95
2021/01/29 23:44:37;;;;;;;1999.90;999.90;;;2.80;99.90;;;;;;6215403;23;20055;-94
2021/01/29 23:47:04;;;;;;;1999.90;999.90;;;2.80;99.90;;;;;;6215909;23;20024;-95
2021/01/29 23:49:31;;;;;;;1999.90;999.90;;;2.80;99.90;;;;;;6216044;23;20348;-95
2021/01/29 23:52:00;;;;;;;1999.90;999.90;;;2.80;99.90;;;;;;6215251;23;20024;-95
2021/01/29 23:54:28;;;;;;;1999.90;999.90;;;2.70;99.90;;;;;;6215337;23;20083;-94
2021/01/29 23:56:56;;;;;;;1999.90;999.90;;;2.70;99.90;;;;;;6215736;23;20020;-94
2021/01/29 23:59:23;;;;;;;1999.90;999.90;;;2.70;99.90;;;;;;6215203;23;20092;-95
